sensor_id;sensor_type;location;lat;lon;timestamp;temperature;humidity
11107;DHT22;5607;48.302;14.294;2023-08-06T00:00:33;17.30;99.90
11107;DHT22;5607;48.302;14.294;2023-08-06T00:03:20;17.20;99.90
11107;DHT22;5607;48.302;14.294;2023-08-06T00:06:06;17.30;99.90
11107;DHT22;5607;48.302;14.294;2023-08-06T00:08:52;17.20;99.90
11107;DHT22;5607;48.302;14.294;2023-08-06T00:11:39;17.30;99.90
11107;DHT22;5607;48.302;14.294;2023-08-06T00:14:27;17.20;99.90
11107;DHT22;5607;48.302;14.294;2023-08-06T00:17:13;17.40;99.90
11107;DHT22;5607;48.302;14.294;2023-08-06T00:20:02;17.20;99.90
11107;DHT22;5607;48.302;14.294;2023-08-06T00:22:52;17.20;99.90
11107;DHT22;5607;48.302;14.294;2023-08-06T00:25:38;17.20;99.90
11107;DHT22;5607;48.302;14.294;2023-08-06T00:28:24;17.30;99.90
11107;DHT22;5607;48.302;14.294;2023-08-06T00:31:11;17.30;99.90
11107;DHT22;5607;48.302;14.294;2023-08-06T00:33:57;17.40;99.90
11107;DHT22;5607;48.302;14.294;2023-08-06T00:36:43;17.40;99.90
11107;DHT22;5607;48.302;14.294;2023-08-06T00:39:31;17.40;99.90
11107;DHT22;5607;48.302;14.294;2023-08-06T00:42:17;17.40;99.90
11107;DHT22;5607;48.302;14.294;2023-08-06T00:45:06;17.50;99.90
11107;DHT22;5607;48.302;14.294;2023-08-06T00:47:53;17.40;99.90
11107;DHT22;5607;48.302;14.294;2023-08-06T00:50:39;17.30;99.90
11107;DHT22;5607;48.302;14.294;2023-08-06T00:53:25;17.30;99.90
11107;DHT22;5607;48.302;14.294;2023-08-06T00:56:12;17.40;99.90
11107;DHT22;5607;48.302;14.294;2023-08-06T00:58:58;17.30;99.90
11107;DHT22;5607;48.302;14.294;2023-08-06T01:01:45;17.20;99.90
11107;DHT22;5607;48.302;14.294;2023-08-06T01:04:31;17.10;99.90
11107;DHT22;5607;48.302;14.294;2023-08-06T01:07:33;17.00;99.90
11107;DHT22;5607;48.302;14.294;2023-08-06T01:16:20;16.80;99.90
11107;DHT22;5607;48.302;14.294;2023-08-06T01:19:15;16.90;99.90
11107;DHT22;5607;48.302;14.294;2023-08-06T01:22:02;16.90;99.90
11107;DHT22;5607;48.302;14.294;2023-08-06T01:24:48;16.90;99.90
11107;DHT22;5607;48.302;14.294;2023-08-06T01:27:44;16.80;99.90
11107;DHT22;5607;48.302;14.294;2023-08-06T01:30:31;16.80;99.90
11107;DHT22;5607;48.302;14.294;2023-08-06T01:33:23;16.90;99.90
11107;DHT22;5607;48.302;14.294;2023-08-06T01:36:09;16.80;99.90
11107;DHT22;5607;48.302;14.294;2023-08-06T01:38:56;16.80;99.90
11107;DHT22;5607;48.302;14.294;2023-08-06T01:41:43;16.80;99.90
11107;DHT22;5607;48.302;14.294;2023-08-06T01:44:31;16.90;99.90
11107;DHT22;5607;48.302;14.294;2023-08-06T01:47:17;17.00;99.90
11107;DHT22;5607;48.302;14.294;2023-08-06T01:50:03;17.00;99.90
11107;DHT22;5607;48.302;14.294;2023-08-06T01:52:50;17.10;99.90
11107;DHT22;5607;48.302;14.294;2023-08-06T01:55:36;17.10;99.90
11107;DHT22;5607;48.302;14.294;2023-08-06T01:58:22;17.10;99.90
11107;DHT22;5607;48.302;14.294;2023-08-06T02:01:08;17.00;99.90
11107;DHT22;5607;48.302;14.294;2023-08-06T02:03:55;17.00;99.90
11107;DHT22;5607;48.302;14.294;2023-08-06T02:06:41;17.10;99.90
11107;DHT22;5607;48.302;14.294;2023-08-06T02:09:27;17.00;99.90
11107;DHT22;5607;48.302;14.294;2023-08-06T02:12:13;17.00;99.90
11107;DHT22;5607;48.302;14.294;2023-08-06T02:14:59;17.00;99.90
11107;DHT22;5607;48.302;14.294;2023-08-06T02:17:46;17.00;99.90
11107;DHT22;5607;48.302;14.294;2023-08-06T02:20:32;17.00;99.90
11107;DHT22;5607;48.302;14.294;2023-08-06T02:23:18;17.10;99.90
11107;DHT22;5607;48.302;14.294;2023-08-06T02:26:04;17.10;99.90
11107;DHT22;5607;48.302;14.294;2023-08-06T02:28:50;17.20;99.90
11107;DHT22;5607;48.302;14.294;2023-08-06T02:31:37;17.20;99.90
11107;DHT22;5607;48.302;14.294;2023-08-06T02:34:23;17.20;99.90
11107;DHT22;5607;48.302;14.294;2023-08-06T02:37:09;17.10;99.90
11107;DHT22;5607;48.302;14.294;2023-08-06T02:39:56;17.10;99.90
11107;DHT22;5607;48.302;14.294;2023-08-06T02:42:43;17.00;99.90
11107;DHT22;5607;48.302;14.294;2023-08-06T02:45:29;17.00;99.90
11107;DHT22;5607;48.302;14.294;2023-08-06T02:48:15;16.90;99.90
11107;DHT22;5607;48.302;14.294;2023-08-06T02:51:04;16.90;99.90
11107;DHT22;5607;48.302;14.294;2023-08-06T02:53:50;16.90;99.90
11107;DHT22;5607;48.302;14.294;2023-08-06T02:56:36;16.90;99.90
11107;DHT22;5607;48.302;14.294;2023-08-06T02:59:22;16.80;99.90
11107;DHT22;5607;48.302;14.294;2023-08-06T03:02:08;16.90;99.90
11107;DHT22;5607;48.302;14.294;2023-08-06T03:04:55;16.90;99.90
11107;DHT22;5607;48.302;14.294;2023-08-06T03:07:41;17.00;99.90
11107;DHT22;5607;48.302;14.294;2023-08-06T03:10:27;16.90;99.90
11107;DHT22;5607;48.302;14.294;2023-08-06T03:13:13;16.90;99.90
11107;DHT22;5607;48.302;14.294;2023-08-06T03:15:59;16.80;99.90
11107;DHT22;5607;48.302;14.294;2023-08-06T03:18:46;16.80;99.90
11107;DHT22;5607;48.302;14.294;2023-08-06T03:21:33;16.70;99.90
11107;DHT22;5607;48.302;14.294;2023-08-06T03:24:19;16.50;99.90
11107;DHT22;5607;48.302;14.294;2023-08-06T03:27:05;16.40;99.90
11107;DHT22;5607;48.302;14.294;2023-08-06T03:29:52;16.50;99.90
11107;DHT22;5607;48.302;14.294;2023-08-06T03:32:38;16.60;99.90
11107;DHT22;5607;48.302;14.294;2023-08-06T03:35:24;16.60;99.90
11107;DHT22;5607;48.302;14.294;2023-08-06T03:38:10;16.60;99.90
11107;DHT22;5607;48.302;14.294;2023-08-06T03:40:57;16.60;99.90
11107;DHT22;5607;48.302;14.294;2023-08-06T03:43:43;16.70;99.90
11107;DHT22;5607;48.302;14.294;2023-08-06T03:46:29;16.70;99.90
11107;DHT22;5607;48.302;14.294;2023-08-06T03:49:18;16.80;99.90
11107;DHT22;5607;48.302;14.294;2023-08-06T03:52:05;16.60;99.90
11107;DHT22;5607;48.302;14.294;2023-08-06T03:54:51;16.50;99.90
11107;DHT22;5607;48.302;14.294;2023-08-06T03:57:38;16.50;99.90
11107;DHT22;5607;48.302;14.294;2023-08-06T04:00:24;16.40;99.90
11107;DHT22;5607;48.302;14.294;2023-08-06T04:03:10;16.50;99.90
11107;DHT22;5607;48.302;14.294;2023-08-06T04:05:57;16.50;99.90
11107;DHT22;5607;48.302;14.294;2023-08-06T04:08:43;16.50;99.90
11107;DHT22;5607;48.302;14.294;2023-08-06T04:11:29;16.50;99.90
11107;DHT22;5607;48.302;14.294;2023-08-06T04:14:15;16.60;99.90
11107;DHT22;5607;48.302;14.294;2023-08-06T04:17:02;16.60;99.90
11107;DHT22;5607;48.302;14.294;2023-08-06T04:19:52;16.50;99.90
11107;DHT22;5607;48.302;14.294;2023-08-06T04:22:38;16.50;99.90
11107;DHT22;5607;48.302;14.294;2023-08-06T04:25:24;16.40;99.90
11107;DHT22;5607;48.302;14.294;2023-08-06T04:28:11;16.40;99.90
11107;DHT22;5607;48.302;14.294;2023-08-06T04:30:58;16.50;99.90
11107;DHT22;5607;48.302;14.294;2023-08-06T04:33:44;16.40;99.90
11107;DHT22;5607;48.302;14.294;2023-08-06T04:36:31;16.40;99.90
11107;DHT22;5607;48.302;14.294;2023-08-06T04:39:17;16.40;99.90
11107;DHT22;5607;48.302;14.294;2023-08-06T04:42:03;16.50;99.90
11107;DHT22;5607;48.302;14.294;2023-08-06T04:44:50;16.40;99.90
11107;DHT22;5607;48.302;14.294;2023-08-06T04:47:36;16.40;99.90
11107;DHT22;5607;48.302;14.294;2023-08-06T04:50:22;16.40;99.90
11107;DHT22;5607;48.302;14.294;2023-08-06T04:53:08;16.30;99.90
11107;DHT22;5607;48.302;14.294;2023-08-06T04:55:55;16.40;99.90
11107;DHT22;5607;48.302;14.294;2023-08-06T04:58:41;16.40;99.90
11107;DHT22;5607;48.302;14.294;2023-08-06T05:01:27;16.40;99.90
11107;DHT22;5607;48.302;14.294;2023-08-06T05:04:14;16.50;99.90
11107;DHT22;5607;48.302;14.294;2023-08-06T05:07:00;16.50;99.90
11107;DHT22;5607;48.302;14.294;2023-08-06T05:09:46;16.60;99.90
11107;DHT22;5607;48.302;14.294;2023-08-06T05:12:33;16.60;99.90
11107;DHT22;5607;48.302;14.294;2023-08-06T05:15:19;16.70;99.90
11107;DHT22;5607;48.302;14.294;2023-08-06T05:18:05;16.60;99.90
11107;DHT22;5607;48.302;14.294;2023-08-06T05:20:51;16.60;99.90
11107;DHT22;5607;48.302;14.294;2023-08-06T05:23:38;16.70;99.90
11107;DHT22;5607;48.302;14.294;2023-08-06T05:26:24;16.50;99.90
11107;DHT22;5607;48.302;14.294;2023-08-06T05:29:10;16.60;99.90
11107;DHT22;5607;48.302;14.294;2023-08-06T05:31:56;16.60;99.90
11107;DHT22;5607;48.302;14.294;2023-08-06T05:34:43;16.60;99.90
11107;DHT22;5607;48.302;14.294;2023-08-06T05:37:29;16.50;99.90
11107;DHT22;5607;48.302;14.294;2023-08-06T05:40:16;16.50;99.90
11107;DHT22;5607;48.302;14.294;2023-08-06T05:43:03;16.60;99.90
11107;DHT22;5607;48.302;14.294;2023-08-06T05:45:49;16.70;99.90
11107;DHT22;5607;48.302;14.294;2023-08-06T05:48:36;16.70;99.90
11107;DHT22;5607;48.302;14.294;2023-08-06T05:51:22;16.60;99.90
11107;DHT22;5607;48.302;14.294;2023-08-06T05:54:08;16.60;99.90
11107;DHT22;5607;48.302;14.294;2023-08-06T05:56:54;16.60;99.90
11107;DHT22;5607;48.302;14.294;2023-08-06T05:59:41;16.60;99.90
11107;DHT22;5607;48.302;14.294;2023-08-06T06:02:27;16.50;99.90
11107;DHT22;5607;48.302;14.294;2023-08-06T06:05:13;16.60;99.90
11107;DHT22;5607;48.302;14.294;2023-08-06T06:08:00;16.80;99.90
11107;DHT22;5607;48.302;14.294;2023-08-06T06:10:46;16.80;99.90
11107;DHT22;5607;48.302;14.294;2023-08-06T06:13:32;17.00;99.90
11107;DHT22;5607;48.302;14.294;2023-08-06T06:16:18;17.10;99.90
11107;DHT22;5607;48.302;14.294;2023-08-06T06:19:04;17.30;87.70
11107;DHT22;5607;48.302;14.294;2023-08-06T06:21:51;17.20;95.20
11107;DHT22;5607;48.302;14.294;2023-08-06T06:24:37;17.30;99.90
11107;DHT22;5607;48.302;14.294;2023-08-06T06:27:24;17.40;79.70
11107;DHT22;5607;48.302;14.294;2023-08-06T06:30:10;17.40;44.40
11107;DHT22;5607;48.302;14.294;2023-08-06T06:32:58;17.50;44.80
11107;DHT22;5607;48.302;14.294;2023-08-06T06:35:44;17.60;38.70
11107;DHT22;5607;48.302;14.294;2023-08-06T06:38:30;17.60;29.30
11107;DHT22;5607;48.302;14.294;2023-08-06T06:41:16;17.60;13.50
11107;DHT22;5607;48.302;14.294;2023-08-06T06:44:03;17.40;13.60
11107;DHT22;5607;48.302;14.294;2023-08-06T06:46:49;17.50;32.80
11107;DHT22;5607;48.302;14.294;2023-08-06T06:49:35;17.60;6.80
11107;DHT22;5607;48.302;14.294;2023-08-06T06:52:21;17.90;1.00
11107;DHT22;5607;48.302;14.294;2023-08-06T06:55:08;17.90;1.00
11107;DHT22;5607;48.302;14.294;2023-08-06T06:57:54;17.90;1.00
11107;DHT22;5607;48.302;14.294;2023-08-06T07:00:40;18.00;1.00
11107;DHT22;5607;48.302;14.294;2023-08-06T07:03:26;17.90;1.00
11107;DHT22;5607;48.302;14.294;2023-08-06T07:06:13;18.10;1.00
11107;DHT22;5607;48.302;14.294;2023-08-06T07:08:59;18.30;1.00
11107;DHT22;5607;48.302;14.294;2023-08-06T07:11:45;18.50;1.00
11107;DHT22;5607;48.302;14.294;2023-08-06T07:14:31;18.20;1.00
11107;DHT22;5607;48.302;14.294;2023-08-06T07:17:17;18.50;1.00
11107;DHT22;5607;48.302;14.294;2023-08-06T07:20:04;18.30;1.00
11107;DHT22;5607;48.302;14.294;2023-08-06T07:22:50;18.60;1.00
11107;DHT22;5607;48.302;14.294;2023-08-06T07:25:37;18.80;1.00
11107;DHT22;5607;48.302;14.294;2023-08-06T07:28:23;18.90;1.00
11107;DHT22;5607;48.302;14.294;2023-08-06T07:31:10;18.80;1.00
11107;DHT22;5607;48.302;14.294;2023-08-06T07:33:56;18.80;1.00
11107;DHT22;5607;48.302;14.294;2023-08-06T07:36:43;18.80;1.00
11107;DHT22;5607;48.302;14.294;2023-08-06T07:39:31;18.80;1.00
11107;DHT22;5607;48.302;14.294;2023-08-06T07:42:17;18.70;1.00
11107;DHT22;5607;48.302;14.294;2023-08-06T07:45:06;18.70;1.00
11107;DHT22;5607;48.302;14.294;2023-08-06T07:47:54;18.70;1.00
11107;DHT22;5607;48.302;14.294;2023-08-06T07:50:40;18.70;1.00
11107;DHT22;5607;48.302;14.294;2023-08-06T07:53:26;18.70;1.00
11107;DHT22;5607;48.302;14.294;2023-08-06T07:56:13;18.60;1.00
11107;DHT22;5607;48.302;14.294;2023-08-06T07:59:00;18.30;1.00
11107;DHT22;5607;48.302;14.294;2023-08-06T08:01:46;18.30;1.00
11107;DHT22;5607;48.302;14.294;2023-08-06T08:04:32;18.10;1.00
11107;DHT22;5607;48.302;14.294;2023-08-06T08:07:18;18.20;1.00
11107;DHT22;5607;48.302;14.294;2023-08-06T08:10:05;18.10;1.00
11107;DHT22;5607;48.302;14.294;2023-08-06T08:12:53;18.30;1.00
11107;DHT22;5607;48.302;14.294;2023-08-06T08:15:39;18.60;1.00
11107;DHT22;5607;48.302;14.294;2023-08-06T08:18:27;18.40;1.00
11107;DHT22;5607;48.302;14.294;2023-08-06T08:21:13;18.50;1.00
11107;DHT22;5607;48.302;14.294;2023-08-06T08:24:00;18.70;1.00
11107;DHT22;5607;48.302;14.294;2023-08-06T08:26:46;18.80;1.00
11107;DHT22;5607;48.302;14.294;2023-08-06T08:29:32;18.90;1.00
11107;DHT22;5607;48.302;14.294;2023-08-06T08:32:19;18.80;1.00
11107;DHT22;5607;48.302;14.294;2023-08-06T08:35:05;18.90;1.00
11107;DHT22;5607;48.302;14.294;2023-08-06T08:37:51;18.90;1.00
11107;DHT22;5607;48.302;14.294;2023-08-06T08:40:38;19.10;1.00
11107;DHT22;5607;48.302;14.294;2023-08-06T08:43:26;19.00;1.00
11107;DHT22;5607;48.302;14.294;2023-08-06T08:46:12;19.20;1.00
11107;DHT22;5607;48.302;14.294;2023-08-06T08:48:59;19.00;1.00
11107;DHT22;5607;48.302;14.294;2023-08-06T08:51:46;18.80;1.00
11107;DHT22;5607;48.302;14.294;2023-08-06T08:54:33;18.80;1.00
11107;DHT22;5607;48.302;14.294;2023-08-06T08:57:20;18.50;1.00
11107;DHT22;5607;48.302;14.294;2023-08-06T09:00:06;18.40;1.00
11107;DHT22;5607;48.302;14.294;2023-08-06T09:02:53;18.30;1.00
11107;DHT22;5607;48.302;14.294;2023-08-06T09:05:40;18.10;1.00
11107;DHT22;5607;48.302;14.294;2023-08-06T09:08:36;18.00;1.00
11107;DHT22;5607;48.302;14.294;2023-08-06T09:11:23;18.00;1.00
11107;DHT22;5607;48.302;14.294;2023-08-06T09:14:10;18.10;1.00
11107;DHT22;5607;48.302;14.294;2023-08-06T09:16:57;18.20;1.00
11107;DHT22;5607;48.302;14.294;2023-08-06T09:19:44;18.30;1.00
11107;DHT22;5607;48.302;14.294;2023-08-06T09:22:35;18.40;1.00
11107;DHT22;5607;48.302;14.294;2023-08-06T09:25:22;18.70;1.00
11107;DHT22;5607;48.302;14.294;2023-08-06T09:28:11;18.80;1.00
11107;DHT22;5607;48.302;14.294;2023-08-06T09:30:57;18.80;1.00
11107;DHT22;5607;48.302;14.294;2023-08-06T09:33:45;18.90;1.00
11107;DHT22;5607;48.302;14.294;2023-08-06T09:36:38;19.00;1.00
11107;DHT22;5607;48.302;14.294;2023-08-06T09:39:28;18.90;1.00
11107;DHT22;5607;48.302;14.294;2023-08-06T09:42:15;18.90;1.00
11107;DHT22;5607;48.302;14.294;2023-08-06T09:45:07;19.10;1.00
11107;DHT22;5607;48.302;14.294;2023-08-06T09:47:57;19.20;1.00
11107;DHT22;5607;48.302;14.294;2023-08-06T09:50:43;19.10;1.00
11107;DHT22;5607;48.302;14.294;2023-08-06T09:53:30;19.10;1.00
11107;DHT22;5607;48.302;14.294;2023-08-06T09:56:20;18.90;1.00
11107;DHT22;5607;48.302;14.294;2023-08-06T09:59:06;19.10;1.00
11107;DHT22;5607;48.302;14.294;2023-08-06T10:01:53;19.60;1.00
11107;DHT22;5607;48.302;14.294;2023-08-06T10:04:41;19.60;1.00
11107;DHT22;5607;48.302;14.294;2023-08-06T10:07:29;19.90;1.00
11107;DHT22;5607;48.302;14.294;2023-08-06T10:10:15;20.10;1.00
11107;DHT22;5607;48.302;14.294;2023-08-06T10:13:02;20.40;1.00
11107;DHT22;5607;48.302;14.294;2023-08-06T10:15:50;20.20;1.00
11107;DHT22;5607;48.302;14.294;2023-08-06T10:18:37;19.90;1.00
11107;DHT22;5607;48.302;14.294;2023-08-06T10:21:24;20.00;1.00
11107;DHT22;5607;48.302;14.294;2023-08-06T10:24:13;20.10;1.00
11107;DHT22;5607;48.302;14.294;2023-08-06T10:27:01;20.10;1.00
11107;DHT22;5607;48.302;14.294;2023-08-06T10:29:48;20.70;1.00
11107;DHT22;5607;48.302;14.294;2023-08-06T10:32:47;21.20;99.90
11107;DHT22;5607;48.302;14.294;2023-08-06T10:35:53;21.30;99.90
11107;DHT22;5607;48.302;14.294;2023-08-06T10:38:45;21.40;99.90
11107;DHT22;5607;48.302;14.294;2023-08-06T10:41:32;21.40;99.90
11107;DHT22;5607;48.302;14.294;2023-08-06T10:44:19;21.40;99.90
11107;DHT22;5607;48.302;14.294;2023-08-06T10:50:19;21.60;99.90
11107;DHT22;5607;48.302;14.294;2023-08-06T10:53:06;21.40;99.90
11107;DHT22;5607;48.302;14.294;2023-08-06T10:55:52;21.30;99.90
11107;DHT22;5607;48.302;14.294;2023-08-06T10:58:38;21.30;99.90
11107;DHT22;5607;48.302;14.294;2023-08-06T11:01:26;20.90;99.90
11107;DHT22;5607;48.302;14.294;2023-08-06T11:04:14;20.50;99.90
11107;DHT22;5607;48.302;14.294;2023-08-06T11:07:03;20.30;99.90
11107;DHT22;5607;48.302;14.294;2023-08-06T11:09:50;20.50;99.90
11107;DHT22;5607;48.302;14.294;2023-08-06T11:12:36;20.70;99.90
11107;DHT22;5607;48.302;14.294;2023-08-06T11:15:22;21.10;99.90
11107;DHT22;5607;48.302;14.294;2023-08-06T11:18:09;21.00;99.90
11107;DHT22;5607;48.302;14.294;2023-08-06T11:20:58;21.30;99.90
11107;DHT22;5607;48.302;14.294;2023-08-06T11:23:45;21.40;99.90
11107;DHT22;5607;48.302;14.294;2023-08-06T11:26:31;21.70;99.90
11107;DHT22;5607;48.302;14.294;2023-08-06T11:29:18;21.40;99.90
11107;DHT22;5607;48.302;14.294;2023-08-06T11:32:05;21.10;99.90
11107;DHT22;5607;48.302;14.294;2023-08-06T11:34:52;21.10;99.90
11107;DHT22;5607;48.302;14.294;2023-08-06T11:37:45;21.10;99.90
11107;DHT22;5607;48.302;14.294;2023-08-06T11:40:32;20.90;99.90
11107;DHT22;5607;48.302;14.294;2023-08-06T11:43:19;21.00;99.90
11107;DHT22;5607;48.302;14.294;2023-08-06T11:46:08;21.10;99.90
11107;DHT22;5607;48.302;14.294;2023-08-06T11:48:55;21.00;99.90
11107;DHT22;5607;48.302;14.294;2023-08-06T11:51:41;21.00;99.90
11107;DHT22;5607;48.302;14.294;2023-08-06T11:54:31;20.60;99.90
11107;DHT22;5607;48.302;14.294;2023-08-06T11:57:19;21.00;99.90
11107;DHT22;5607;48.302;14.294;2023-08-06T12:00:07;21.00;99.90
11107;DHT22;5607;48.302;14.294;2023-08-06T12:02:54;20.70;99.90
11107;DHT22;5607;48.302;14.294;2023-08-06T12:05:41;20.20;99.90
11107;DHT22;5607;48.302;14.294;2023-08-06T12:08:27;19.20;99.90
11107;DHT22;5607;48.302;14.294;2023-08-06T12:11:14;18.50;1.00
11107;DHT22;5607;48.302;14.294;2023-08-06T12:14:00;18.20;1.00
11107;DHT22;5607;48.302;14.294;2023-08-06T12:16:46;18.10;1.00
11107;DHT22;5607;48.302;14.294;2023-08-06T12:19:33;18.30;1.00
11107;DHT22;5607;48.302;14.294;2023-08-06T12:22:19;18.50;1.00
11107;DHT22;5607;48.302;14.294;2023-08-06T12:25:06;18.90;1.00
11107;DHT22;5607;48.302;14.294;2023-08-06T12:27:54;19.30;1.00
11107;DHT22;5607;48.302;14.294;2023-08-06T12:30:40;19.50;1.00
11107;DHT22;5607;48.302;14.294;2023-08-06T12:33:28;19.00;1.00
11107;DHT22;5607;48.302;14.294;2023-08-06T12:36:15;18.90;1.00
11107;DHT22;5607;48.302;14.294;2023-08-06T12:39:01;18.90;1.00
11107;DHT22;5607;48.302;14.294;2023-08-06T12:41:47;17.90;1.00
11107;DHT22;5607;48.302;14.294;2023-08-06T12:44:33;17.10;79.50
11107;DHT22;5607;48.302;14.294;2023-08-06T12:47:20;16.60;80.10
11107;DHT22;5607;48.302;14.294;2023-08-06T12:50:06;16.50;99.90
11107;DHT22;5607;48.302;14.294;2023-08-06T12:52:52;16.40;99.90
11107;DHT22;5607;48.302;14.294;2023-08-06T12:55:39;16.30;68.90
11107;DHT22;5607;48.302;14.294;2023-08-06T12:58:26;16.20;93.20
11107;DHT22;5607;48.302;14.294;2023-08-06T13:01:12;16.20;99.90
11107;DHT22;5607;48.302;14.294;2023-08-06T13:03:59;16.10;99.90
11107;DHT22;5607;48.302;14.294;2023-08-06T13:06:46;16.10;99.90
11107;DHT22;5607;48.302;14.294;2023-08-06T13:09:32;15.90;99.90
11107;DHT22;5607;48.302;14.294;2023-08-06T13:12:18;15.80;99.90
11107;DHT22;5607;48.302;14.294;2023-08-06T13:15:06;15.70;99.90
11107;DHT22;5607;48.302;14.294;2023-08-06T13:17:52;15.90;99.90
11107;DHT22;5607;48.302;14.294;2023-08-06T13:20:39;16.10;99.90
11107;DHT22;5607;48.302;14.294;2023-08-06T13:23:28;16.40;99.90
11107;DHT22;5607;48.302;14.294;2023-08-06T13:26:14;17.10;99.90
11107;DHT22;5607;48.302;14.294;2023-08-06T13:29:01;17.70;99.90
11107;DHT22;5607;48.302;14.294;2023-08-06T13:31:48;18.20;97.10
11107;DHT22;5607;48.302;14.294;2023-08-06T13:34:34;18.90;64.60
11107;DHT22;5607;48.302;14.294;2023-08-06T13:37:21;19.10;1.00
11107;DHT22;5607;48.302;14.294;2023-08-06T13:40:07;18.90;1.00
11107;DHT22;5607;48.302;14.294;2023-08-06T13:42:54;19.00;1.00
11107;DHT22;5607;48.302;14.294;2023-08-06T13:45:40;19.30;1.00
11107;DHT22;5607;48.302;14.294;2023-08-06T13:48:27;19.50;1.00
11107;DHT22;5607;48.302;14.294;2023-08-06T13:51:13;19.30;1.00
11107;DHT22;5607;48.302;14.294;2023-08-06T13:53:59;19.10;1.00
11107;DHT22;5607;48.302;14.294;2023-08-06T13:56:46;18.90;1.00
11107;DHT22;5607;48.302;14.294;2023-08-06T13:59:32;18.70;1.00
11107;DHT22;5607;48.302;14.294;2023-08-06T14:02:18;18.80;1.00
11107;DHT22;5607;48.302;14.294;2023-08-06T14:05:04;19.20;1.00
11107;DHT22;5607;48.302;14.294;2023-08-06T14:07:51;19.70;1.00
11107;DHT22;5607;48.302;14.294;2023-08-06T14:10:37;20.60;1.00
11107;DHT22;5607;48.302;14.294;2023-08-06T14:13:23;20.50;1.00
11107;DHT22;5607;48.302;14.294;2023-08-06T14:16:10;20.30;1.00
11107;DHT22;5607;48.302;14.294;2023-08-06T14:18:56;20.10;1.00
11107;DHT22;5607;48.302;14.294;2023-08-06T14:21:42;20.30;1.00
11107;DHT22;5607;48.302;14.294;2023-08-06T14:24:28;20.20;1.00
11107;DHT22;5607;48.302;14.294;2023-08-06T14:27:15;20.00;1.00
11107;DHT22;5607;48.302;14.294;2023-08-06T14:30:01;19.50;1.00
11107;DHT22;5607;48.302;14.294;2023-08-06T14:32:48;19.60;1.00
11107;DHT22;5607;48.302;14.294;2023-08-06T14:35:36;19.90;1.00
11107;DHT22;5607;48.302;14.294;2023-08-06T14:38:22;20.40;1.00
11107;DHT22;5607;48.302;14.294;2023-08-06T14:41:08;19.50;1.00
11107;DHT22;5607;48.302;14.294;2023-08-06T14:43:54;19.30;1.00
11107;DHT22;5607;48.302;14.294;2023-08-06T14:46:41;19.20;1.00
11107;DHT22;5607;48.302;14.294;2023-08-06T14:49:27;19.40;1.00
11107;DHT22;5607;48.302;14.294;2023-08-06T14:52:13;22.30;99.90
11107;DHT22;5607;48.302;14.294;2023-08-06T14:55:00;23.30;99.90
11107;DHT22;5607;48.302;14.294;2023-08-06T14:57:46;22.70;99.90
11107;DHT22;5607;48.302;14.294;2023-08-06T15:00:32;22.00;99.90
11107;DHT22;5607;48.302;14.294;2023-08-06T15:03:18;21.70;99.90
11107;DHT22;5607;48.302;14.294;2023-08-06T15:06:04;21.80;99.90
11107;DHT22;5607;48.302;14.294;2023-08-06T15:08:51;25.10;99.90
11107;DHT22;5607;48.302;14.294;2023-08-06T15:11:37;28.80;99.90
11107;DHT22;5607;48.302;14.294;2023-08-06T15:14:24;32.40;99.90
11107;DHT22;5607;48.302;14.294;2023-08-06T15:17:10;32.30;99.90
11107;DHT22;5607;48.302;14.294;2023-08-06T15:19:57;28.20;99.90
11107;DHT22;5607;48.302;14.294;2023-08-06T15:22:46;24.90;99.90
11107;DHT22;5607;48.302;14.294;2023-08-06T15:25:32;23.10;99.90
11107;DHT22;5607;48.302;14.294;2023-08-06T15:28:18;22.20;99.90
11107;DHT22;5607;48.302;14.294;2023-08-06T15:31:04;21.50;99.90
11107;DHT22;5607;48.302;14.294;2023-08-06T15:33:54;21.10;99.90
11107;DHT22;5607;48.302;14.294;2023-08-06T15:36:40;20.80;99.90
11107;DHT22;5607;48.302;14.294;2023-08-06T15:39:26;21.10;99.90
11107;DHT22;5607;48.302;14.294;2023-08-06T15:42:12;21.20;99.90
11107;DHT22;5607;48.302;14.294;2023-08-06T15:44:59;21.30;99.90
11107;DHT22;5607;48.302;14.294;2023-08-06T15:47:45;21.10;99.90
11107;DHT22;5607;48.302;14.294;2023-08-06T15:50:32;20.60;99.90
11107;DHT22;5607;48.302;14.294;2023-08-06T15:53:18;20.00;99.90
11107;DHT22;5607;48.302;14.294;2023-08-06T15:56:04;19.80;99.90
11107;DHT22;5607;48.302;14.294;2023-08-06T15:58:51;19.80;99.90
11107;DHT22;5607;48.302;14.294;2023-08-06T16:01:37;19.60;99.90
11107;DHT22;5607;48.302;14.294;2023-08-06T16:04:27;19.50;99.90
11107;DHT22;5607;48.302;14.294;2023-08-06T16:07:13;19.30;99.90
11107;DHT22;5607;48.302;14.294;2023-08-06T16:09:59;19.30;99.90
11107;DHT22;5607;48.302;14.294;2023-08-06T16:12:45;19.30;99.90
11107;DHT22;5607;48.302;14.294;2023-08-06T16:15:32;19.50;99.90
11107;DHT22;5607;48.302;14.294;2023-08-06T16:18:18;19.30;99.90
11107;DHT22;5607;48.302;14.294;2023-08-06T16:21:04;19.10;99.90
11107;DHT22;5607;48.302;14.294;2023-08-06T16:23:50;19.10;99.90
11107;DHT22;5607;48.302;14.294;2023-08-06T16:26:38;19.10;99.90
11107;DHT22;5607;48.302;14.294;2023-08-06T16:29:24;18.90;99.90
11107;DHT22;5607;48.302;14.294;2023-08-06T16:32:10;18.80;99.90
11107;DHT22;5607;48.302;14.294;2023-08-06T16:34:56;18.60;99.90
11107;DHT22;5607;48.302;14.294;2023-08-06T16:37:44;18.50;99.90
11107;DHT22;5607;48.302;14.294;2023-08-06T16:40:31;18.20;99.90
11107;DHT22;5607;48.302;14.294;2023-08-06T16:43:18;18.10;99.90
11107;DHT22;5607;48.302;14.294;2023-08-06T16:46:04;18.00;99.90
11107;DHT22;5607;48.302;14.294;2023-08-06T16:48:51;18.20;99.90
11107;DHT22;5607;48.302;14.294;2023-08-06T16:51:38;18.10;99.90
11107;DHT22;5607;48.302;14.294;2023-08-06T16:54:24;17.90;99.90
11107;DHT22;5607;48.302;14.294;2023-08-06T16:57:10;17.60;1.00
11107;DHT22;5607;48.302;14.294;2023-08-06T16:59:56;17.10;1.00
11107;DHT22;5607;48.302;14.294;2023-08-06T17:02:42;16.20;1.00
11107;DHT22;5607;48.302;14.294;2023-08-06T17:05:29;15.50;96.00
11107;DHT22;5607;48.302;14.294;2023-08-06T17:08:15;15.20;99.90
11107;DHT22;5607;48.302;14.294;2023-08-06T17:11:01;14.90;99.90
11107;DHT22;5607;48.302;14.294;2023-08-06T17:13:50;14.70;99.90
11107;DHT22;5607;48.302;14.294;2023-08-06T17:16:37;14.60;99.90
11107;DHT22;5607;48.302;14.294;2023-08-06T17:19:23;14.70;99.90
11107;DHT22;5607;48.302;14.294;2023-08-06T17:22:09;14.80;99.90
11107;DHT22;5607;48.302;14.294;2023-08-06T17:24:56;14.90;99.90
11107;DHT22;5607;48.302;14.294;2023-08-06T17:30:49;14.80;99.90
11107;DHT22;5607;48.302;14.294;2023-08-06T17:33:36;14.80;99.90
11107;DHT22;5607;48.302;14.294;2023-08-06T17:36:22;14.80;99.90
11107;DHT22;5607;48.302;14.294;2023-08-06T17:39:08;14.80;99.90
11107;DHT22;5607;48.302;14.294;2023-08-06T17:41:55;14.90;99.90
11107;DHT22;5607;48.302;14.294;2023-08-06T17:44:41;14.90;99.90
11107;DHT22;5607;48.302;14.294;2023-08-06T17:47:27;15.00;99.90
11107;DHT22;5607;48.302;14.294;2023-08-06T17:50:13;14.90;99.90